Time;durP1;ratioP1;P1;durP2;ratioP2;P2;SDS_P1;SDS_P2;PMS_P1;PMS_P2;Temp;Humidity;BMP_temperature;BMP_pressure;BME280_temperature;BME280_humidity;BME280_pressure;Samples;Min_cycle;Max_cycle;Signal;HPM_P1;HPM_P2
2023/07/10 00:01:28;;;;;;;6.28;2.65;;;25.10;78.10;;;;;;7376051;19;20119;-76
2023/07/10 00:04:00;;;;;;;6.00;2.58;;;25.00;78.20;;;;;;7375596;19;20007;-76
2023/07/10 00:06:30;;;;;;;6.40;2.60;;;25.10;79.00;;;;;;7375163;19;20006;-76
2023/07/10 00:08:59;;;;;;;8.77;2.53;;;25.00;77.90;;;;;;7397098;19;20003;-76
2023/07/10 00:11:33;;;;;;;5.00;2.40;;;25.10;78.00;;;;;;7376067;19;20014;-77
2023/07/10 00:14:02;;;;;;;6.13;2.70;;;25.10;78.10;;;;;;7376543;19;20035;-77
2023/07/10 00:16:35;;;;;;;4.28;2.38;;;25.10;78.00;;;;;;7377244;19;20006;-77
2023/07/10 00:19:11;;;;;;;7.05;2.65;;;25.00;77.90;;;;;;7374913;19;20018;-76
2023/07/10 00:21:40;;;;;;;9.57;2.55;;;24.90;77.90;;;;;;7377117;19;20015;-76
2023/07/10 00:24:09;;;;;;;6.80;2.42;;;24.90;78.40;;;;;;7396855;19;20010;-77
2023/07/10 00:26:42;;;;;;;6.88;2.40;;;24.80;78.60;;;;;;7375777;19;20007;-77
2023/07/10 00:29:18;;;;;;;5.40;2.47;;;24.80;78.80;;;;;;7375284;19;20037;-77
2023/07/10 00:31:47;;;;;;;5.22;2.65;;;24.80;78.80;;;;;;7376980;19;20010;-76
2023/07/10 00:34:18;;;;;;;6.00;2.85;;;24.80;78.80;;;;;;7375459;19;20199;-76
2023/07/10 00:36:51;;;;;;;5.47;3.20;;;24.70;78.80;;;;;;7374963;19;20011;-76
2023/07/10 00:39:23;;;;;;;8.63;2.90;;;24.70;78.80;;;;;;7373917;19;20050;-77
2023/07/10 00:41:58;;;;;;;7.35;3.30;;;24.70;79.00;;;;;;7395728;19;20013;-77
2023/07/10 00:44:32;;;;;;;8.45;3.65;;;24.60;79.20;;;;;;7375634;19;20007;-77
2023/07/10 00:47:05;;;;;;;7.00;3.20;;;24.50;79.50;;;;;;7375529;19;20014;-76
2023/07/10 00:49:44;;;;;;;7.97;3.50;;;24.50;79.50;;;;;;7374375;19;20007;-77
2023/07/10 00:52:18;;;;;;;6.45;2.95;;;24.50;79.50;;;;;;7374626;19;19999;-77
2023/07/10 00:54:54;;;;;;;7.00;3.03;;;24.60;79.40;;;;;;7376626;19;20702;-77
2023/07/10 00:57:35;;;;;;;8.07;3.15;;;24.50;79.70;;;;;;7373189;19;20011;-77
2023/07/10 01:00:17;;;;;;;8.82;3.22;;;24.40;79.70;;;;;;7396541;19;20019;-76
2023/07/10 01:02:47;;;;;;;5.68;3.17;;;24.30;80.00;;;;;;7374844;19;20018;-76
2023/07/10 01:05:16;;;;;;;7.22;3.05;;;24.30;81.00;;;;;;7374044;19;20006;-76
2023/07/10 01:07:49;;;;;;;6.80;3.00;;;24.30;80.40;;;;;;7375327;19;20045;-77
2023/07/10 01:10:17;;;;;;;9.93;3.00;;;24.20;80.20;;;;;;7373844;19;20011;-77
2023/07/10 01:12:49;;;;;;;12.95;3.60;;;24.20;80.30;;;;;;7376620;19;20039;-77
2023/07/10 01:15:19;;;;;;;5.97;2.95;;;24.20;79.90;;;;;;7395122;19;20010;-77
2023/07/10 01:17:48;;;;;;;6.80;3.10;;;24.20;79.90;;;;;;7375144;19;20011;-77
2023/07/10 01:20:42;;;;;;;8.20;3.38;;;24.20;79.90;;;;;;7381670;19;20111;-77
2023/07/10 01:23:13;;;;;;;5.82;3.00;;;24.20;79.90;;;;;;7375771;19;20010;-76
2023/07/10 01:25:48;;;;;;;8.85;2.97;;;24.30;79.80;;;;;;7375395;19;20212;-76
2023/07/10 01:28:21;;;;;;;6.38;2.90;;;24.20;79.90;;;;;;7376247;19;20006;-76
2023/07/10 01:30:53;;;;;;;7.38;3.38;;;24.20;80.20;;;;;;7375198;19;20016;-75
2023/07/10 01:33:26;;;;;;;6.07;3.20;;;24.20;80.00;;;;;;7376763;19;19999;-75
2023/07/10 01:35:58;;;;;;;7.47;3.28;;;24.20;79.80;;;;;;7399570;19;20028;-76
2023/07/10 01:38:37;;;;;;;8.15;3.40;;;24.20;79.90;;;;;;7391146;19;20011;-76
2023/07/10 01:41:17;;;;;;;8.63;3.60;;;24.10;80.00;;;;;;7375239;19;20003;-78
2023/07/10 01:43:45;;;;;;;7.40;3.25;;;24.00;80.30;;;;;;7373857;19;20017;-77
2023/07/10 01:46:27;;;;;;;6.93;2.80;;;24.00;80.30;;;;;;7373953;19;20035;-77
2023/07/10 01:48:59;;;;;;;7.05;3.17;;;24.00;80.20;;;;;;7373008;19;20026;-76
2023/07/10 01:51:30;;;;;;;6.57;3.08;;;24.00;80.40;;;;;;7378836;19;20018;-76
2023/07/10 01:54:06;;;;;;;7.93;2.95;;;24.00;80.50;;;;;;7403932;19;20011;-75
2023/07/10 01:56:35;;;;;;;6.03;2.83;;;24.00;80.60;;;;;;7380280;19;20019;-77
2023/07/10 01:59:05;;;;;;;9.52;3.17;;;23.90;80.80;;;;;;7381687;19;20006;-76
2023/07/10 02:01:34;;;;;;;7.38;3.15;;;23.90;80.80;;;;;;7379912;19;20006;-78
2023/07/10 02:04:03;;;;;;;8.80;2.95;;;24.00;80.50;;;;;;7379081;19;20384;-77
2023/07/10 02:06:35;;;;;;;7.15;3.17;;;24.00;80.30;;;;;;7378031;19;20402;-76
2023/07/10 02:09:07;;;;;;;5.25;2.92;;;24.00;80.20;;;;;;7400931;19;20007;-77
2023/07/10 02:11:38;;;;;;;5.78;2.65;;;24.00;80.30;;;;;;7379382;19;20349;-77
2023/07/10 02:14:07;;;;;;;;;;;24.00;80.30;;;;;;7380391;19;20071;-76
2023/07/10 02:16:37;;;;;;;4.85;2.83;;;23.90;80.40;;;;;;7378740;19;19907;-76
2023/07/10 02:19:06;;;;;;;9.88;2.80;;;23.90;80.40;;;;;;7380204;19;20661;-76
2023/07/10 02:21:36;;;;;;;8.80;2.75;;;23.80;80.60;;;;;;7378029;19;20232;-76
2023/07/10 02:24:12;;;;;;;4.80;2.90;;;23.80;80.50;;;;;;7399532;19;20010;-76
2023/07/10 02:26:47;;;;;;;5.80;3.13;;;23.80;80.20;;;;;;7379580;19;20034;-76
2023/07/10 02:29:17;;;;;;;7.07;2.90;;;23.70;80.00;;;;;;7379269;19;20018;-76
2023/07/10 02:31:47;;;;;;;10.77;3.30;;;23.70;80.20;;;;;;7380487;19;20007;-76
2023/07/10 02:34:16;;;;;;;10.52;3.00;;;23.80;80.20;;;;;;7379140;19;20010;-76
2023/07/10 02:36:44;;;;;;;11.27;2.80;;;23.90;80.20;;;;;;7378486;19;20010;-77
2023/07/10 02:39:16;;;;;;;5.72;2.90;;;23.80;80.20;;;;;;7399386;19;20006;-77
2023/07/10 02:41:45;;;;;;;9.63;3.17;;;23.80;80.20;;;;;;7380922;19;20696;-77
2023/07/10 02:44:14;;;;;;;5.40;2.90;;;23.70;80.50;;;;;;7383354;19;20006;-77
2023/07/10 02:46:42;;;;;;;6.80;2.60;;;23.70;80.40;;;;;;7383480;19;20537;-76
2023/07/10 02:49:11;;;;;;;9.32;2.95;;;23.70;80.50;;;;;;7382881;19;20102;-76
2023/07/10 02:51:40;;;;;;;4.85;2.85;;;23.60;80.50;;;;;;7383137;19;20000;-76
2023/07/10 02:54:12;;;;;;;12.10;3.40;;;23.60;80.70;;;;;;7400539;19;20105;-77
2023/07/10 02:56:44;;;;;;;11.35;3.13;;;23.60;80.90;;;;;;7379018;19;20334;-77
2023/07/10 02:59:13;;;;;;;5.85;3.15;;;23.50;81.00;;;;;;7378683;19;20003;-76
2023/07/10 03:01:43;;;;;;;7.88;3.28;;;23.50;81.20;;;;;;7377504;19;20007;-77
2023/07/10 03:04:11;;;;;;;9.43;3.55;;;23.50;81.50;;;;;;7377663;19;20006;-77
2023/07/10 03:06:40;;;;;;;12.60;3.78;;;23.50;81.60;;;;;;7380180;19;20089;-77
2023/07/10 03:09:12;;;;;;;7.18;3.60;;;23.50;81.80;;;;;;7398387;19;20010;-77
2023/07/10 03:11:40;;;;;;;10.52;3.75;;;23.40;81.80;;;;;;7378251;19;20006;-77
2023/07/10 03:14:12;;;;;;;7.13;3.40;;;23.40;81.80;;;;;;7377643;19;20071;-77
2023/07/10 03:16:41;;;;;;;5.40;3.25;;;23.40;82.00;;;;;;7378348;19;20354;-76
2023/07/10 03:19:09;;;;;;;5.85;3.35;;;23.40;81.90;;;;;;7377311;19;20706;-76
2023/07/10 03:21:39;;;;;;;6.53;3.28;;;23.40;82.20;;;;;;7376297;19;20450;-76
2023/07/10 03:24:08;;;;;;;7.47;3.35;;;23.30;81.90;;;;;;7397450;19;20354;-76
2023/07/10 03:26:37;;;;;;;5.72;3.25;;;23.30;82.20;;;;;;7377395;19;20103;-77
2023/07/10 03:29:10;;;;;;;7.25;3.70;;;23.40;82.20;;;;;;7379669;19;20003;-77
2023/07/10 03:31:41;;;;;;;6.78;3.50;;;23.40;82.30;;;;;;7378205;19;20002;-75
2023/07/10 03:34:13;;;;;;;6.93;3.50;;;23.40;82.20;;;;;;7378705;19;20030;-76
2023/07/10 03:36:42;;;;;;;6.88;3.45;;;23.50;82.20;;;;;;7378967;19;20006;-76
2023/07/10 03:39:12;;;;;;;7.32;3.33;;;23.50;82.10;;;;;;7402850;19;20254;-76
2023/07/10 03:41:42;;;;;;;4.17;2.83;;;23.50;82.10;;;;;;7382009;19;20206;-76
2023/07/10 03:44:13;;;;;;;6.95;3.30;;;23.40;81.90;;;;;;7380170;19;20006;-76
2023/07/10 03:46:45;;;;;;;10.15;3.60;;;23.40;81.90;;;;;;7381268;19;20023;-76
2023/07/10 03:49:14;;;;;;;6.55;3.63;;;23.40;81.90;;;;;;7378499;19;20008;-76
2023/07/10 03:51:43;;;;;;;15.75;3.05;;;23.40;82.00;;;;;;7381874;19;20011;-76
2023/07/10 03:54:14;;;;;;;8.25;3.08;;;23.30;82.00;;;;;;7400552;19;20006;-76
2023/07/10 03:56:43;;;;;;;5.38;2.72;;;23.30;82.00;;;;;;7384062;19;20291;-76
2023/07/10 03:59:12;;;;;;;8.57;3.28;;;23.30;82.30;;;;;;7382142;19;20010;-76
2023/07/10 04:01:43;;;;;;;7.03;3.30;;;23.30;82.50;;;;;;7381239;19;20010;-76
2023/07/10 04:04:14;;;;;;;;;;;23.30;82.30;;;;;;7379767;19;20007;-76
2023/07/10 04:06:43;;;;;;;4.13;3.00;;;23.40;82.20;;;;;;7376893;19;19919;-76
2023/07/10 04:09:12;;;;;;;4.88;3.40;;;23.40;82.00;;;;;;7396952;19;20003;-76
2023/07/10 04:11:43;;;;;;;7.45;3.40;;;23.40;82.00;;;;;;7377202;19;20318;-76
2023/07/10 04:14:12;;;;;;;10.35;3.50;;;23.40;82.20;;;;;;7375172;19;20089;-75
2023/07/10 04:16:42;;;;;;;6.32;3.05;;;23.40;82.00;;;;;;7377015;19;20013;-75
2023/07/10 04:19:13;;;;;;;8.40;3.38;;;23.40;82.00;;;;;;7377512;19;20030;-75
2023/07/10 04:21:45;;;;;;;10.73;3.17;;;23.40;82.00;;;;;;7374586;19;20011;-75
2023/07/10 04:24:19;;;;;;;13.68;3.20;;;23.30;81.90;;;;;;7396013;19;20031;-75
2023/07/10 04:26:48;;;;;;;9.43;3.63;;;23.30;82.00;;;;;;7376233;19;20574;-76
2023/07/10 04:29:18;;;;;;;11.38;3.20;;;23.30;82.20;;;;;;7375657;19;20030;-76
2023/07/10 04:31:47;;;;;;;6.82;3.22;;;23.30;82.30;;;;;;7375983;19;20014;-75
2023/07/10 04:34:16;;;;;;;6.25;3.35;;;23.30;82.10;;;;;;7375393;19;20031;-75
2023/07/10 04:37:22;;;;;;;13.48;3.75;;;23.30;82.00;;;;;;7373610;19;20023;-77
2023/07/10 04:39:51;;;;;;;9.60;3.50;;;23.30;82.00;;;;;;7374608;19;20007;-77
2023/07/10 04:42:20;;;;;;;6.28;3.30;;;23.30;82.10;;;;;;7380880;19;20007;-76
2023/07/10 04:44:48;;;;;;;6.18;3.30;;;23.30;82.20;;;;;;7394420;19;20006;-75
2023/07/10 04:47:17;;;;;;;6.93;3.58;;;23.40;82.20;;;;;;7377812;19;20006;-74
2023/07/10 04:49:46;;;;;;;5.85;3.30;;;23.40;82.30;;;;;;7375000;19;20235;-74
2023/07/10 04:52:17;;;;;;;12.27;4.03;;;23.30;82.50;;;;;;7374342;19;20007;-74
2023/07/10 04:54:46;;;;;;;;;;;23.30;82.70;;;;;;7374686;19;20003;-75
2023/07/10 04:57:15;;;;;;;7.38;3.67;;;23.30;82.90;;;;;;7394221;19;20425;-75
2023/07/10 04:59:43;;;;;;;11.73;3.47;;;23.30;82.70;;;;;;7374425;19;20006;-75
2023/07/10 05:02:12;;;;;;;6.05;3.03;;;23.30;82.80;;;;;;7374330;19;20007;-75
2023/07/10 05:04:41;;;;;;;11.88;3.80;;;23.30;83.10;;;;;;7374320;19;20011;-75
2023/07/10 05:07:10;;;;;;;5.72;3.28;;;23.30;83.00;;;;;;7373638;19;20249;-75
2023/07/10 05:09:42;;;;;;;11.63;3.88;;;23.30;83.30;;;;;;7373446;19;20030;-75
2023/07/10 05:12:12;;;;;;;9.88;3.70;;;23.30;84.00;;;;;;7394780;19;20011;-75
2023/07/10 05:14:40;;;;;;;9.77;3.60;;;23.30;83.30;;;;;;7374396;19;20003;-75
2023/07/10 05:17:09;;;;;;;13.80;4.03;;;23.40;83.20;;;;;;7373562;19;20704;-74
2023/07/10 05:19:38;;;;;;;7.65;3.70;;;23.40;83.30;;;;;;7372886;19;20371;-75
2023/07/10 05:22:07;;;;;;;14.18;4.65;;;23.40;83.50;;;;;;7373285;19;20010;-75
2023/07/10 05:24:36;;;;;;;22.80;3.83;;;23.40;83.50;;;;;;7375180;19;20018;-75
2023/07/10 05:27:08;;;;;;;8.82;3.67;;;23.40;83.60;;;;;;7399853;19;20335;-75
2023/07/10 05:29:36;;;;;;;8.98;3.55;;;23.40;83.60;;;;;;7382760;19;20047;-75
2023/07/10 05:32:06;;;;;;;9.60;3.63;;;23.40;83.60;;;;;;7395808;19;20031;-75
2023/07/10 05:34:35;;;;;;;10.45;3.63;;;23.50;83.70;;;;;;7380350;19;20015;-76
2023/07/10 05:37:04;;;;;;;9.55;3.40;;;23.50;83.50;;;;;;7380942;19;20003;-76
2023/07/10 05:39:32;;;;;;;13.02;4.05;;;23.50;83.80;;;;;;7379222;19;20371;-75
2023/07/10 05:42:04;;;;;;;10.57;3.13;;;23.50;83.70;;;;;;7399994;19;20007;-75
2023/07/10 05:44:36;;;;;;;11.55;3.53;;;23.50;83.70;;;;;;7380499;19;20007;-75
2023/07/10 05:47:05;;;;;;;16.58;3.67;;;23.50;83.60;;;;;;7381000;19;20022;-75
2023/07/10 05:49:35;;;;;;;7.68;3.35;;;23.60;83.60;;;;;;7379519;19;20011;-76
2023/07/10 05:52:04;;;;;;;10.38;3.70;;;23.60;83.40;;;;;;7380968;19;20032;-75
2023/07/10 05:54:34;;;;;;;11.30;3.40;;;23.60;83.50;;;;;;7381623;19;20050;-75
2023/07/10 05:57:03;;;;;;;11.85;3.53;;;23.60;83.60;;;;;;7401847;19;20399;-74
2023/07/10 05:59:31;;;;;;;13.73;3.67;;;23.70;84.40;;;;;;7380016;19;20369;-74
2023/07/10 06:02:03;;;;;;;17.02;3.42;;;23.70;83.70;;;;;;7378024;19;20007;-74
2023/07/10 06:04:32;;;;;;;;;;;23.70;83.80;;;;;;7380467;19;20019;-75
2023/07/10 06:07:01;;;;;;;10.73;3.42;;;23.80;83.60;;;;;;7378415;19;19915;-75
2023/07/10 06:09:30;;;;;;;7.30;2.95;;;23.90;83.20;;;;;;7376921;19;20006;-75
2023/07/10 06:11:59;;;;;;;6.72;2.92;;;23.90;82.90;;;;;;7399196;19;20007;-76
2023/07/10 06:14:29;;;;;;;8.20;3.20;;;24.00;82.80;;;;;;7379123;19;20011;-76
2023/07/10 06:16:58;;;;;;;21.27;3.70;;;24.00;82.80;;;;;;7379447;19;20011;-74
2023/07/10 06:19:31;;;;;;;11.48;3.55;;;24.00;82.80;;;;;;7378039;19;20028;-75
2023/07/10 06:22:10;;;;;;;8.93;3.45;;;24.10;82.40;;;;;;7378257;19;20208;-75
2023/07/10 06:24:42;;;;;;;8.63;3.30;;;24.10;82.20;;;;;;7378233;19;20370;-75
2023/07/10 06:27:11;;;;;;;10.30;3.22;;;24.10;81.80;;;;;;7398169;19;20520;-75
2023/07/10 06:29:40;;;;;;;8.45;2.88;;;24.10;81.50;;;;;;7378788;19;20007;-75
2023/07/10 06:32:12;;;;;;;7.97;2.83;;;24.10;81.70;;;;;;7378844;19;20026;-75
2023/07/10 06:34:45;;;;;;;16.25;3.22;;;24.20;81.80;;;;;;7378253;19;20037;-75
2023/07/10 06:37:18;;;;;;;15.43;3.13;;;24.10;81.60;;;;;;7376675;19;20032;-75
2023/07/10 06:39:47;;;;;;;16.35;3.95;;;24.10;81.50;;;;;;7381625;19;20013;-75
2023/07/10 06:42:15;;;;;;;10.23;3.90;;;24.20;81.50;;;;;;7400270;19;20011;-76
2023/07/10 06:44:44;;;;;;;17.40;3.53;;;24.20;81.50;;;;;;7378730;19;20681;-74
2023/07/10 06:47:13;;;;;;;15.10;2.95;;;24.30;81.70;;;;;;7379792;19;20219;-76
2023/07/10 06:49:44;;;;;;;14.35;2.95;;;24.30;81.40;;;;;;7377908;19;20015;-75
2023/07/10 06:52:13;;;;;;;14.43;3.40;;;24.40;81.00;;;;;;7377870;19;20006;-76
2023/07/10 06:54:42;;;;;;;15.60;3.05;;;24.50;81.00;;;;;;7377648;19;20030;-75
2023/07/10 06:57:10;;;;;;;13.20;2.88;;;24.50;80.70;;;;;;7398043;19;20020;-76
2023/07/10 06:59:39;;;;;;;9.73;2.90;;;24.50;80.50;;;;;;7378046;19;20007;-76
2023/07/10 07:02:17;;;;;;;13.25;2.78;;;24.50;80.60;;;;;;7378357;19;20007;-77
2023/07/10 07:04:48;;;;;;;15.52;2.65;;;24.60;80.10;;;;;;7383944;19;20024;-72
2023/07/10 07:07:17;;;;;;;;;;;24.60;79.70;;;;;;7384790;19;20015;-72
2023/07/10 07:09:46;;;;;;;11.95;2.40;;;24.70;79.80;;;;;;7383144;19;19911;-72
2023/07/10 07:12:14;;;;;;;12.27;2.50;;;24.70;79.60;;;;;;7402916;19;20367;-73
2023/07/10 07:14:43;;;;;;;11.95;2.63;;;24.70;79.40;;;;;;7380009;19;20020;-75
2023/07/10 07:17:25;;;;;;;11.70;2.75;;;24.70;79.20;;;;;;7383973;19;20106;-79
2023/07/10 07:19:56;;;;;;;18.77;3.20;;;24.70;79.50;;;;;;7384791;19;20039;-75
2023/07/10 07:22:24;;;;;;;;;;;24.80;79.50;;;;;;7381959;19;20007;-75
2023/07/10 07:24:56;;;;;;;11.07;2.35;;;24.90;79.40;;;;;;7381171;19;19923;-76
2023/07/10 07:27:49;;;;;;;14.35;2.80;;;24.90;78.90;;;;;;7379252;19;20023;-77
2023/07/10 07:30:34;;;;;;;14.98;2.75;;;24.80;78.00;;;;;;7399208;19;20015;-76
2023/07/10 07:33:03;;;;;;;16.55;3.10;;;24.90;77.90;;;;;;7378332;19;20354;-76
2023/07/10 07:35:53;;;;;;;14.15;3.35;;;24.90;77.80;;;;;;7380563;19;20004;-76
2023/07/10 07:38:24;;;;;;;14.38;3.58;;;24.80;77.80;;;;;;7376653;19;20413;-75
2023/07/10 07:41:12;;;;;;;13.20;3.23;;;24.90;77.70;;;;;;7377394;19;20010;-77
2023/07/10 07:43:40;;;;;;;8.02;2.78;;;24.90;77.60;;;;;;7377608;19;20007;-75
2023/07/10 07:46:09;;;;;;;13.20;3.05;;;25.00;77.90;;;;;;7376881;19;20021;-73
2023/07/10 07:48:40;;;;;;;12.13;2.88;;;25.00;77.90;;;;;;7377251;19;20011;-74
2023/07/10 07:51:12;;;;;;;13.67;2.77;;;25.00;77.40;;;;;;7399661;19;20214;-77
2023/07/10 07:53:43;;;;;;;11.20;2.80;;;24.90;77.00;;;;;;7379476;19;20268;-72
2023/07/10 07:56:15;;;;;;;12.18;2.20;;;24.90;77.50;;;;;;7385228;19;20014;-76
2023/07/10 07:59:18;;;;;;;9.10;2.45;;;25.00;77.30;;;;;;7384350;19;20014;-76
2023/07/10 08:02:35;;;;;;;12.55;2.65;;;24.90;76.90;;;;;;7378828;19;20011;-77
2023/07/10 08:08:19;;;;;;;16.92;5.25;;;25.10;75.60;;;;;;7402456;19;19979;-74
2023/07/10 08:11:07;;;;;;;10.18;3.22;;;25.10;74.80;;;;;;7385315;19;20025;-76
2023/07/10 08:14:10;;;;;;;11.95;2.55;;;25.10;74.20;;;;;;7361066;19;20292;-76
2023/07/10 08:17:46;;;;;;;16.02;5.00;;;25.20;74.00;;;;;;7403293;19;20003;-78
2023/07/10 08:20:21;;;;;;;12.70;3.08;;;25.30;74.00;;;;;;7353057;19;20082;-77
2023/07/10 08:23:15;;;;;;;13.13;2.55;;;25.30;73.30;;;;;;7396199;19;20023;-76
2023/07/10 08:38:55;;;;;;;18.08;2.63;;;25.40;73.30;;;;;;7407086;19;20409;-75
2023/07/10 08:41:25;;;;;;;7.18;1.60;;;25.40;71.50;;;;;;7415557;19;20007;-80
2023/07/10 08:43:54;;;;;;;11.68;2.00;;;25.40;70.80;;;;;;7411942;19;20006;-77
2023/07/10 08:46:25;;;;;;;10.63;1.85;;;25.50;70.50;;;;;;7411371;19;20006;-79
2023/07/10 08:48:59;;;;;;;7.43;2.13;;;25.50;70.00;;;;;;7395588;19;20031;-76
2023/07/10 08:51:57;;;;;;;9.20;1.88;;;25.50;70.20;;;;;;7430460;19;20010;-82
2023/07/10 08:54:29;;;;;;;13.50;2.40;;;25.50;69.90;;;;;;7410843;19;20035;-74
2023/07/10 08:57:11;;;;;;;13.70;2.22;;;25.60;69.70;;;;;;7429172;19;20003;-73
2023/07/10 08:59:45;;;;;;;7.85;2.10;;;25.70;69.70;;;;;;7409467;19;20690;-73
2023/07/10 09:02:22;;;;;;;6.45;1.98;;;25.80;69.80;;;;;;7409987;19;20066;-73
2023/07/10 09:05:16;;;;;;;7.85;2.08;;;25.80;70.30;;;;;;7398017;19;20066;-80
2023/07/10 09:07:47;;;;;;;6.53;1.88;;;25.90;69.70;;;;;;7431682;19;20105;-73
2023/07/10 09:10:26;;;;;;;8.17;2.07;;;25.90;70.10;;;;;;7413093;19;20002;-76
2023/07/10 09:12:59;;;;;;;10.15;1.75;;;25.90;68.20;;;;;;7410569;19;20003;-73
2023/07/10 09:15:37;;;;;;;13.05;2.03;;;25.90;67.70;;;;;;7409888;19;20014;-77
2023/07/10 09:18:14;;;;;;;8.00;1.58;;;26.00;66.60;;;;;;7430159;19;20014;-74
2023/07/10 09:20:43;;;;;;;9.52;1.80;;;26.00;65.90;;;;;;7414393;19;20027;-75
2023/07/10 09:23:23;;;;;;;9.10;1.70;;;25.90;65.10;;;;;;7413151;19;20006;-78
2023/07/10 09:26:07;;;;;;;5.15;1.42;;;25.90;65.40;;;;;;7413574;19;20342;-76
2023/07/10 09:28:36;;;;;;;3.72;1.67;;;25.90;63.60;;;;;;7409743;19;20284;-76
2023/07/10 09:31:13;;;;;;;6.85;1.75;;;25.70;62.70;;;;;;7411186;19;20014;-74
2023/07/10 09:33:48;;;;;;;3.60;1.40;;;25.90;63.30;;;;;;7411093;19;20006;-76
2023/07/10 09:36:22;;;;;;;9.35;1.60;;;25.90;63.10;;;;;;7437148;19;20006;-77
2023/07/10 09:38:53;;;;;;;6.65;1.55;;;26.10;63.00;;;;;;7398898;19;20035;-74
2023/07/10 09:41:26;;;;;;;10.95;1.55;;;25.90;60.90;;;;;;7384616;19;20031;-74
2023/07/10 09:43:58;;;;;;;4.20;1.45;;;26.00;61.60;;;;;;7382925;19;20104;-74
2023/07/10 09:46:30;;;;;;;4.55;1.60;;;26.10;61.60;;;;;;7382593;19;20447;-73
2023/07/10 09:49:02;;;;;;;5.97;1.67;;;26.10;62.20;;;;;;7401700;19;20263;-77
2023/07/10 09:51:31;;;;;;;9.90;1.85;;;26.10;61.40;;;;;;7381482;19;20010;-77
2023/07/10 09:54:06;;;;;;;5.13;1.58;;;26.20;61.60;;;;;;7404220;19;20010;-70
2023/07/10 09:56:40;;;;;;;6.72;1.40;;;26.20;61.30;;;;;;7380576;19;20007;-73
2023/07/10 09:59:21;;;;;;;5.38;1.40;;;26.30;59.30;;;;;;7380420;19;19999;-72
2023/07/10 10:01:50;;;;;;;7.57;1.58;;;26.30;59.50;;;;;;7381026;19;19999;-73
2023/07/10 10:04:23;;;;;;;4.50;1.20;;;26.20;60.50;;;;;;7381186;19;20006;-73
2023/07/10 10:06:58;;;;;;;5.80;1.75;;;26.20;60.30;;;;;;7380347;19;20035;-72
2023/07/10 10:09:29;;;;;;;4.32;1.50;;;26.30;61.20;;;;;;7380982;19;20023;-72
2023/07/10 10:12:17;;;;;;;5.38;1.70;;;26.30;60.80;;;;;;7399624;19;20015;-74
2023/07/10 10:14:54;;;;;;;6.75;1.63;;;26.30;60.70;;;;;;7386133;19;20018;-79
2023/07/10 10:17:27;;;;;;;2.90;1.30;;;26.30;60.30;;;;;;7388605;19;20043;-73
2023/07/10 10:20:04;;;;;;;4.85;1.38;;;26.30;59.90;;;;;;7389224;19;20026;-73
2023/07/10 10:22:34;;;;;;;7.28;1.65;;;26.20;58.80;;;;;;7386199;19;20007;-75
2023/07/10 10:25:03;;;;;;;5.57;1.77;;;26.30;59.90;;;;;;7387342;19;20017;-74
2023/07/10 10:27:43;;;;;;;5.00;1.20;;;26.40;61.00;;;;;;7381568;19;20017;-75
2023/07/10 10:30:30;;;;;;;5.43;1.50;;;26.50;61.00;;;;;;7409501;19;20011;-75
2023/07/10 10:33:08;;;;;;;5.55;1.50;;;26.60;59.70;;;;;;7392315;19;20017;-76
2023/07/10 10:35:50;;;;;;;6.35;1.70;;;26.70;59.40;;;;;;7381740;19;20097;-76
2023/07/10 10:38:49;;;;;;;9.27;1.58;;;26.60;59.70;;;;;;7377894;19;20034;-76
2023/07/10 10:41:44;;;;;;;6.00;1.60;;;26.70;58.60;;;;;;7382947;19;20009;-76
2023/07/10 10:44:29;;;;;;;4.15;1.40;;;26.70;58.80;;;;;;7381358;19;20007;-75
2023/07/10 10:47:23;;;;;;;6.13;1.60;;;26.70;58.70;;;;;;7382714;19;20373;-75
2023/07/10 10:50:10;;;;;;;7.43;1.52;;;26.70;58.60;;;;;;7381734;19;20015;-74
2023/07/10 10:52:46;;;;;;;7.65;1.67;;;26.60;58.40;;;;;;7381212;19;20396;-75
2023/07/10 10:55:31;;;;;;;8.50;1.65;;;26.70;58.90;;;;;;7382994;19;20003;-76
2023/07/10 10:58:14;;;;;;;12.23;1.67;;;26.80;57.40;;;;;;7381877;19;20370;-76
2023/07/10 11:01:29;;;;;;;7.13;1.35;;;26.90;57.70;;;;;;7381187;19;20020;-75
2023/07/10 11:07:15;;;;;;;5.68;1.48;;;27.00;58.10;;;;;;7391212;19;20070;-78
2023/07/10 11:09:49;;;;;;;7.45;1.70;;;26.90;57.90;;;;;;7397835;19;20013;-76
2023/07/10 11:12:20;;;;;;;5.95;1.88;;;27.00;58.50;;;;;;7414824;19;20006;-79
2023/07/10 11:14:56;;;;;;;7.47;1.42;;;27.00;58.20;;;;;;7398659;19;20002;-75
2023/07/10 11:17:32;;;;;;;8.82;1.52;;;27.00;58.00;;;;;;7391831;19;20003;-78
2023/07/10 11:20:04;;;;;;;5.93;1.50;;;26.90;57.20;;;;;;7391568;19;20015;-77
2023/07/10 11:22:35;;;;;;;;;;;27.10;56.90;;;;;;7388332;19;20365;-78
2023/07/10 11:25:04;;;;;;;3.55;1.20;;;27.10;56.70;;;;;;7383690;19;19915;-77
2023/07/10 11:27:36;;;;;;;4.78;1.50;;;27.30;57.40;;;;;;7385606;19;20014;-77
2023/07/10 11:30:11;;;;;;;11.65;1.52;;;27.20;56.50;;;;;;7401505;19;20007;-76
2023/07/10 11:33:00;;;;;;;3.75;1.35;;;27.30;55.90;;;;;;7378872;19;20011;-74
2023/07/10 11:35:30;;;;;;;8.00;1.50;;;27.50;55.90;;;;;;7378637;19;20010;-78
2023/07/10 11:38:23;;;;;;;8.60;1.50;;;27.50;55.70;;;;;;7380680;19;20091;-78
2023/07/10 11:40:54;;;;;;;6.43;1.65;;;27.50;56.60;;;;;;7380097;19;20091;-77
2023/07/10 11:43:55;;;;;;;11.88;1.65;;;27.50;56.30;;;;;;7380634;19;20527;-78
2023/07/10 11:46:36;;;;;;;6.13;1.50;;;27.40;55.90;;;;;;7382949;19;19999;-78
2023/07/10 11:49:19;;;;;;;4.85;1.45;;;27.50;55.70;;;;;;7381642;19;20362;-78
2023/07/10 11:52:13;;;;;;;9.23;1.63;;;27.60;56.00;;;;;;7382005;19;20043;-78
2023/07/10 11:54:43;;;;;;;6.38;1.40;;;27.80;55.70;;;;;;7383252;19;20010;-78
2023/07/10 11:57:23;;;;;;;4.60;1.30;;;27.90;55.20;;;;;;7401250;19;20019;-78
2023/07/10 11:59:54;;;;;;;14.48;1.70;;;28.10;55.60;;;;;;7377257;19;20019;-78
2023/07/10 12:02:31;;;;;;;4.95;1.50;;;28.00;54.10;;;;;;7380514;19;20046;-76
2023/07/10 12:05:15;;;;;;;11.70;1.40;;;28.10;54.30;;;;;;7380043;19;20058;-78
2023/07/10 12:08:00;;;;;;;10.02;1.58;;;28.10;54.10;;;;;;7379563;19;19999;-78
2023/07/10 12:10:31;;;;;;;4.53;1.80;;;28.10;54.60;;;;;;7377230;19;20268;-77
2023/07/10 12:13:01;;;;;;;6.18;1.48;;;28.00;54.50;;;;;;7377628;19;20027;-78
2023/07/10 12:15:30;;;;;;;8.80;1.43;;;27.90;53.60;;;;;;7379713;19;20003;-78
2023/07/10 12:18:00;;;;;;;10.77;1.42;;;28.00;54.90;;;;;;7397119;19;20283;-77
2023/07/10 12:20:34;;;;;;;4.57;1.40;;;28.10;54.30;;;;;;7378874;19;20007;-77
2023/07/10 12:23:08;;;;;;;6.20;1.70;;;28.20;54.00;;;;;;7376690;19;20007;-78
2023/07/10 12:25:36;;;;;;;5.75;1.42;;;28.30;53.20;;;;;;7378734;19;20639;-77
2023/07/10 12:28:19;;;;;;;4.25;1.35;;;28.30;53.10;;;;;;7380974;19;20003;-77
2023/07/10 12:30:51;;;;;;;9.25;1.75;;;28.40;53.00;;;;;;7380242;19;20309;-76
2023/07/10 12:50:48;;;;;;;6.28;1.55;;;28.60;53.10;;;;;;7419165;19;20011;-78
2023/07/10 12:54:12;;;;;;;6.07;1.30;;;28.60;53.30;;;;;;7405758;19;20031;-78
2023/07/10 12:56:42;;;;;;;8.88;1.45;;;28.80;54.10;;;;;;7374712;19;20016;-76
2023/07/10 12:59:26;;;;;;;5.30;1.57;;;28.90;53.30;;;;;;7374227;19;20410;-76
2023/07/10 13:02:02;;;;;;;7.13;1.40;;;29.10;53.30;;;;;;7374094;19;20006;-75
2023/07/10 13:07:59;;;;;;;7.65;1.33;;;29.30;52.20;;;;;;7376721;19;20031;-79
2023/07/10 13:10:30;;;;;;;6.65;1.50;;;29.40;52.00;;;;;;7371848;19;20252;-77
2023/07/10 13:13:03;;;;;;;4.55;1.35;;;29.40;51.30;;;;;;7371205;19;20028;-77
2023/07/10 13:15:37;;;;;;;6.38;1.33;;;29.40;50.60;;;;;;7377738;19;20010;-76
2023/07/10 13:18:08;;;;;;;4.38;1.27;;;29.50;51.00;;;;;;7401192;19;20003;-75
2023/07/10 13:20:38;;;;;;;;;;;29.50;51.00;;;;;;7381832;19;20041;-76
2023/07/10 13:23:09;;;;;;;11.65;1.67;;;29.60;52.20;;;;;;7380238;19;19921;-77
2023/07/10 13:28:58;;;;;;;11.43;1.70;;;29.70;50.80;;;;;;7383258;19;20011;-79
2023/07/10 13:31:33;;;;;;;6.40;1.58;;;29.70;51.30;;;;;;7378893;19;20005;-73
2023/07/10 13:34:02;;;;;;;4.88;1.20;;;29.90;51.20;;;;;;7378633;19;20284;-78
2023/07/10 13:36:53;;;;;;;14.00;1.70;;;30.00;51.00;;;;;;7377370;19;20382;-78
2023/07/10 13:46:36;;;;;;;6.85;1.50;;;30.10;50.10;;;;;;7376687;19;20373;-78
2023/07/10 13:49:18;;;;;;;2.90;1.30;;;30.10;49.40;;;;;;7376223;19;20278;-79
2023/07/10 13:51:47;;;;;;;2.72;1.02;;;30.10;49.80;;;;;;7378591;19;20003;-78
2023/07/10 13:57:35;;;;;;;6.88;1.42;;;30.20;49.60;;;;;;7381321;19;20302;-77
2023/07/10 14:00:22;;;;;;;7.20;1.60;;;30.40;48.80;;;;;;7397549;19;20036;-79
2023/07/10 14:02:55;;;;;;;2.53;1.30;;;30.50;48.40;;;;;;7379302;19;20012;-74
2023/07/10 14:05:23;;;;;;;4.15;1.08;;;30.50;48.50;;;;;;7379089;19;19998;-74
2023/07/10 14:07:52;;;;;;;3.40;1.23;;;30.50;48.50;;;;;;7376378;19;20074;-75
2023/07/10 14:16:59;;;;;;;6.20;1.83;;;30.60;48.70;;;;;;7381833;19;20405;-79
2023/07/10 14:19:40;;;;;;;3.13;1.20;;;30.60;48.70;;;;;;7378920;19;20002;-77
2023/07/10 14:25:41;;;;;;;8.00;1.58;;;30.60;48.50;;;;;;7380443;19;20011;-78